sensor_id;sensor_type;location;lat;lon;timestamp;pressure;altitude;pressure_sealevel;temperature;humidity
32109;BME280;18624;50.042;8.436;2023-12-20T00:00:36;100492.81;;;4.54;100.00
32109;BME280;18624;50.042;8.436;2023-12-20T00:03:04;100448.19;;;4.30;100.00
32109;BME280;18624;50.042;8.436;2023-12-20T00:05:31;100477.34;;;4.55;100.00
32109;BME280;18624;50.042;8.436;2023-12-20T00:08:01;100420.25;;;4.19;100.00
32109;BME280;18624;50.042;8.436;2023-12-20T00:10:28;100441.59;;;4.31;100.00
32109;BME280;18624;50.042;8.436;2023-12-20T00:12:54;100478.88;;;4.56;100.00
32109;BME280;18624;50.042;8.436;2023-12-20T00:15:21;100457.16;;;4.42;100.00
32109;BME280;18624;50.042;8.436;2023-12-20T00:17:47;100481.97;;;4.54;100.00
32109;BME280;18624;50.042;8.436;2023-12-20T00:20:14;100431.50;;;4.21;100.00
32109;BME280;18624;50.042;8.436;2023-12-20T00:22:41;100395.38;;;3.99;100.00
32109;BME280;18624;50.042;8.436;2023-12-20T00:25:07;100457.13;;;4.38;100.00
32109;BME280;18624;50.042;8.436;2023-12-20T00:27:34;100478.47;;;4.54;100.00
32109;BME280;18624;50.042;8.436;2023-12-20T00:30:01;100442.34;;;4.25;100.00
32109;BME280;18624;50.042;8.436;2023-12-20T00:32:27;100473.81;;;4.47;100.00
32109;BME280;18624;50.042;8.436;2023-12-20T00:34:54;100447.03;;;4.28;100.00
32109;BME280;18624;50.042;8.436;2023-12-20T00:37:21;100435.75;;;4.19;100.00
32109;BME280;18624;50.042;8.436;2023-12-20T00:39:47;100448.59;;;4.32;100.00
32109;BME280;18624;50.042;8.436;2023-12-20T00:42:14;100464.88;;;4.43;100.00
32109;BME280;18624;50.042;8.436;2023-12-20T00:44:40;100474.97;;;4.50;100.00
32109;BME280;18624;50.042;8.436;2023-12-20T00:47:07;100466.06;;;4.42;100.00
32109;BME280;18624;50.042;8.436;2023-12-20T00:49:33;100442.75;;;4.23;100.00
32109;BME280;18624;50.042;8.436;2023-12-20T00:52:00;100469.50;;;4.36;100.00
32109;BME280;18624;50.042;8.436;2023-12-20T00:54:26;100455.97;;;4.39;100.00
32109;BME280;18624;50.042;8.436;2023-12-20T00:56:53;100429.94;;;4.20;100.00
32109;BME280;18624;50.042;8.436;2023-12-20T00:59:19;100429.94;;;4.17;100.00
32109;BME280;18624;50.042;8.436;2023-12-20T01:01:45;100434.59;;;4.27;100.00
32109;BME280;18624;50.042;8.436;2023-12-20T01:04:12;100448.56;;;4.36;100.00
32109;BME280;18624;50.042;8.436;2023-12-20T01:06:39;100422.56;;;4.21;100.00
32109;BME280;18624;50.042;8.436;2023-12-20T01:09:05;100442.78;;;4.41;100.00
32109;BME280;18624;50.042;8.436;2023-12-20T01:11:32;100426.84;;;4.25;100.00
32109;BME280;18624;50.042;8.436;2023-12-20T01:13:58;100454.06;;;4.50;100.00
32109;BME280;18624;50.042;8.436;2023-12-20T01:16:24;100444.72;;;4.37;100.00
32109;BME280;18624;50.042;8.436;2023-12-20T01:18:51;100432.31;;;4.40;100.00
32109;BME280;18624;50.042;8.436;2023-12-20T01:21:18;100452.50;;;4.53;100.00
32109;BME280;18624;50.042;8.436;2023-12-20T01:23:44;100431.91;;;4.41;100.00
32109;BME280;18624;50.042;8.436;2023-12-20T01:26:10;100391.94;;;4.17;100.00
32109;BME280;18624;50.042;8.436;2023-12-20T01:28:38;100415.22;;;4.32;100.00
32109;BME280;18624;50.042;8.436;2023-12-20T01:31:05;100438.53;;;4.51;100.00
32109;BME280;18624;50.042;8.436;2023-12-20T01:33:31;100434.63;;;4.45;100.00
32109;BME280;18624;50.042;8.436;2023-12-20T01:35:58;100436.59;;;4.44;100.00
32109;BME280;18624;50.042;8.436;2023-12-20T01:38:24;100351.59;;;3.94;100.00
32109;BME280;18624;50.042;8.436;2023-12-20T01:40:51;100424.94;;;4.44;100.00
32109;BME280;18624;50.042;8.436;2023-12-20T01:43:17;100405.91;;;4.26;100.00
32109;BME280;18624;50.042;8.436;2023-12-20T01:45:44;100432.69;;;4.45;100.00
32109;BME280;18624;50.042;8.436;2023-12-20T01:48:10;100368.25;;;3.99;100.00
32109;BME280;18624;50.042;8.436;2023-12-20T01:50:37;100448.22;;;4.45;100.00
32109;BME280;18624;50.042;8.436;2023-12-20T01:53:07;100444.34;;;4.42;100.00
32109;BME280;18624;50.042;8.436;2023-12-20T01:55:35;100483.16;;;4.61;100.00
32109;BME280;18624;50.042;8.436;2023-12-20T01:58:03;100462.19;;;4.54;100.00
32109;BME280;18624;50.042;8.436;2023-12-20T02:00:30;100432.72;;;4.38;100.00
32109;BME280;18624;50.042;8.436;2023-12-20T02:03:00;100430.75;;;4.35;100.00
32109;BME280;18624;50.042;8.436;2023-12-20T02:05:29;100425.72;;;4.34;100.00
32109;BME280;18624;50.042;8.436;2023-12-20T02:07:56;100420.69;;;4.39;100.00
32109;BME280;18624;50.042;8.436;2023-12-20T02:10:23;100452.91;;;4.55;100.00
32109;BME280;18624;50.042;8.436;2023-12-20T02:12:50;100419.47;;;4.22;100.00
32109;BME280;18624;50.042;8.436;2023-12-20T02:15:17;100429.97;;;4.35;100.00
32109;BME280;18624;50.042;8.436;2023-12-20T02:17:45;100456.75;;;4.47;100.00
32109;BME280;18624;50.042;8.436;2023-12-20T02:20:13;100426.91;;;4.43;100.00
32109;BME280;18624;50.042;8.436;2023-12-20T02:22:39;100448.22;;;4.48;100.00
32109;BME280;18624;50.042;8.436;2023-12-20T02:25:06;100449.78;;;4.46;100.00
32109;BME280;18624;50.042;8.436;2023-12-20T02:27:34;100433.50;;;4.46;100.00
32109;BME280;18624;50.042;8.436;2023-12-20T02:30:01;100405.91;;;4.26;100.00
32109;BME280;18624;50.042;8.436;2023-12-20T02:32:27;100357.00;;;3.87;100.00
32109;BME280;18624;50.042;8.436;2023-12-20T02:34:55;100445.50;;;4.48;100.00
32109;BME280;18624;50.042;8.436;2023-12-20T02:37:22;100411.34;;;4.19;100.00
32109;BME280;18624;50.042;8.436;2023-12-20T02:39:48;100423.38;;;4.28;100.00
32109;BME280;18624;50.042;8.436;2023-12-20T02:42:15;100402.38;;;4.07;100.00
32109;BME280;18624;50.042;8.436;2023-12-20T02:44:41;100411.34;;;4.19;100.00
32109;BME280;18624;50.042;8.436;2023-12-20T02:47:07;100407.06;;;4.21;100.00
32109;BME280;18624;50.042;8.436;2023-12-20T02:49:34;100403.22;;;4.19;100.00
32109;BME280;18624;50.042;8.436;2023-12-20T02:52:00;100398.56;;;4.19;100.00
32109;BME280;18624;50.042;8.436;2023-12-20T02:54:27;100420.63;;;4.21;100.00
32109;BME280;18624;50.042;8.436;2023-12-20T02:56:53;100442.34;;;4.32;100.00
32109;BME280;18624;50.042;8.436;2023-12-20T02:59:20;100456.72;;;4.40;100.00
32109;BME280;18624;50.042;8.436;2023-12-20T03:01:46;100441.56;;;4.21;100.00
32109;BME280;18624;50.042;8.436;2023-12-20T03:04:13;100422.97;;;4.16;100.00
32109;BME280;18624;50.042;8.436;2023-12-20T03:06:39;100394.59;;;3.92;100.00
32109;BME280;18624;50.042;8.436;2023-12-20T03:09:06;100456.34;;;4.38;100.00
32109;BME280;18624;50.042;8.436;2023-12-20T03:11:32;100414.00;;;4.08;100.00
32109;BME280;18624;50.042;8.436;2023-12-20T03:13:59;100437.31;;;4.30;100.00
32109;BME280;18624;50.042;8.436;2023-12-20T03:16:25;100385.34;;;4.11;100.00
32109;BME280;18624;50.042;8.436;2023-12-20T03:18:52;100438.16;;;4.42;100.00
32109;BME280;18624;50.042;8.436;2023-12-20T03:21:18;100424.16;;;4.29;100.00
32109;BME280;18624;50.042;8.436;2023-12-20T03:23:45;100427.25;;;4.31;100.00
32109;BME280;18624;50.042;8.436;2023-12-20T03:26:11;100438.13;;;4.38;100.00
32109;BME280;18624;50.042;8.436;2023-12-20T03:28:38;100414.03;;;4.22;100.00
32109;BME280;18624;50.042;8.436;2023-12-20T03:31:04;100409.38;;;4.12;100.00
32109;BME280;18624;50.042;8.436;2023-12-20T03:33:31;100481.19;;;4.57;100.00
32109;BME280;18624;50.042;8.436;2023-12-20T03:35:58;100444.31;;;4.31;100.00
32109;BME280;18624;50.042;8.436;2023-12-20T03:38:24;100475.38;;;4.48;100.00
32109;BME280;18624;50.042;8.436;2023-12-20T03:40:50;100489.34;;;4.54;100.00
32109;BME280;18624;50.042;8.436;2023-12-20T03:43:17;100427.25;;;4.24;100.00
32109;BME280;18624;50.042;8.436;2023-12-20T03:45:44;100475.00;;;4.53;100.00
32109;BME280;18624;50.042;8.436;2023-12-20T03:48:10;100452.47;;;4.39;100.00
32109;BME280;18624;50.042;8.436;2023-12-20T03:50:37;100424.53;;;4.20;100.00
32109;BME280;18624;50.042;8.436;2023-12-20T03:53:03;100452.47;;;4.39;100.00
32109;BME280;18624;50.042;8.436;2023-12-20T03:55:30;100464.50;;;4.48;100.00
32109;BME280;18624;50.042;8.436;2023-12-20T03:57:56;100463.75;;;4.51;100.00
32109;BME280;18624;50.042;8.436;2023-12-20T04:00:23;100424.53;;;4.20;100.00
32109;BME280;18624;50.042;8.436;2023-12-20T04:02:49;100452.50;;;4.46;100.00
32109;BME280;18624;50.042;8.436;2023-12-20T04:05:16;100481.22;;;4.61;100.00
32109;BME280;18624;50.042;8.436;2023-12-20T04:07:42;100471.50;;;4.56;100.00
32109;BME280;18624;50.042;8.436;2023-12-20T04:10:10;100490.16;;;4.69;100.00
32109;BME280;18624;50.042;8.436;2023-12-20T04:12:37;100452.88;;;4.44;100.00
32109;BME280;18624;50.042;8.436;2023-12-20T04:15:04;100487.81;;;4.71;100.00
32109;BME280;18624;50.042;8.436;2023-12-20T04:17:35;100428.81;;;4.28;100.00
32109;BME280;18624;50.042;8.436;2023-12-20T04:20:02;100446.66;;;4.33;100.00
32109;BME280;18624;50.042;8.436;2023-12-20T04:22:29;100454.41;;;4.35;100.00
32109;BME280;18624;50.042;8.436;2023-12-20T04:24:55;100457.91;;;4.42;100.00
32109;BME280;18624;50.042;8.436;2023-12-20T04:27:22;100511.88;;;4.76;100.00
32109;BME280;18624;50.042;8.436;2023-12-20T04:29:48;100497.50;;;4.61;100.00
32109;BME280;18624;50.042;8.436;2023-12-20T04:32:15;100504.91;;;4.64;100.00
32109;BME280;18624;50.042;8.436;2023-12-20T04:34:41;100451.66;;;4.31;100.00
32109;BME280;18624;50.042;8.436;2023-12-20T04:37:08;100499.06;;;4.66;100.00
32109;BME280;18624;50.042;8.436;2023-12-20T04:39:34;100490.50;;;4.56;100.00
32109;BME280;18624;50.042;8.436;2023-12-20T04:42:01;100496.31;;;4.58;100.00
32109;BME280;18624;50.042;8.436;2023-12-20T04:44:27;100503.31;;;4.67;100.00
32109;BME280;18624;50.042;8.436;2023-12-20T04:46:53;100502.56;;;4.66;100.00
32109;BME280;18624;50.042;8.436;2023-12-20T04:49:20;100462.97;;;4.47;100.00
32109;BME280;18624;50.042;8.436;2023-12-20T04:51:47;100488.94;;;4.59;100.00
32109;BME280;18624;50.042;8.436;2023-12-20T04:54:13;100528.94;;;4.76;100.00
32109;BME280;18624;50.042;8.436;2023-12-20T04:56:41;100460.22;;;4.37;100.00
32109;BME280;18624;50.042;8.436;2023-12-20T04:59:07;100548.38;;;4.86;100.00
32109;BME280;18624;50.042;8.436;2023-12-20T05:01:34;100541.75;;;4.79;100.00
32109;BME280;18624;50.042;8.436;2023-12-20T05:04:00;100473.00;;;4.36;100.00
32109;BME280;18624;50.042;8.436;2023-12-20T05:06:27;100519.25;;;4.65;100.00
32109;BME280;18624;50.042;8.436;2023-12-20T05:08:53;100557.28;;;4.79;100.00
32109;BME280;18624;50.042;8.436;2023-12-20T05:11:20;100540.19;;;4.68;100.00
32109;BME280;18624;50.042;8.436;2023-12-20T05:13:46;100544.44;;;4.72;100.00
32109;BME280;18624;50.042;8.436;2023-12-20T05:16:16;100516.50;;;4.50;100.00
32109;BME280;18624;50.042;8.436;2023-12-20T05:18:45;100544.78;;;4.53;100.00
32109;BME280;18624;50.042;8.436;2023-12-20T05:21:12;100534.72;;;4.53;100.00
32109;BME280;18624;50.042;8.436;2023-12-20T05:23:38;100549.09;;;4.61;100.00
32109;BME280;18624;50.042;8.436;2023-12-20T05:26:05;100497.00;;;4.20;100.00
32109;BME280;18624;50.042;8.436;2023-12-20T05:28:31;100542.44;;;4.44;100.00
32109;BME280;18624;50.042;8.436;2023-12-20T05:30:58;100529.25;;;4.39;100.00
32109;BME280;18624;50.042;8.436;2023-12-20T05:33:25;100539.72;;;4.44;100.00
32109;BME280;18624;50.042;8.436;2023-12-20T05:35:51;100552.13;;;4.45;100.00
32109;BME280;18624;50.042;8.436;2023-12-20T05:38:18;100559.94;;;4.57;100.00
32109;BME280;18624;50.042;8.436;2023-12-20T05:40:44;100522.63;;;4.33;100.00
32109;BME280;18624;50.042;8.436;2023-12-20T05:43:11;100561.91;;;4.64;100.00
32109;BME280;18624;50.042;8.436;2023-12-20T05:45:38;100545.63;;;4.64;100.00
32109;BME280;18624;50.042;8.436;2023-12-20T05:48:04;100437.53;;;3.83;100.00
32109;BME280;18624;50.042;8.436;2023-12-20T05:50:31;100538.56;;;4.42;100.00
32109;BME280;18624;50.042;8.436;2023-12-20T05:52:57;100540.84;;;4.36;100.00
32109;BME280;18624;50.042;8.436;2023-12-20T05:55:24;100520.25;;;4.21;100.00
32109;BME280;18624;50.042;8.436;2023-12-20T05:57:50;100465.13;;;3.92;100.00
32109;BME280;18624;50.042;8.436;2023-12-20T06:00:17;100532.72;;;4.32;100.00
32109;BME280;18624;50.042;8.436;2023-12-20T06:02:44;100481.00;;;3.93;100.00
32109;BME280;18624;50.042;8.436;2023-12-20T06:05:10;100536.91;;;4.23;100.00
32109;BME280;18624;50.042;8.436;2023-12-20T06:07:37;100532.22;;;4.13;100.00
32109;BME280;18624;50.042;8.436;2023-12-20T06:10:04;100581.97;;;4.45;100.00
32109;BME280;18624;50.042;8.436;2023-12-20T06:12:32;100564.06;;;4.26;100.00
32109;BME280;18624;50.042;8.436;2023-12-20T06:14:59;100568.72;;;4.19;100.00
32109;BME280;18624;50.042;8.436;2023-12-20T06:17:26;100566.72;;;4.12;100.00
32109;BME280;18624;50.042;8.436;2023-12-20T06:19:52;100572.13;;;4.09;100.00
32109;BME280;18624;50.042;8.436;2023-12-20T06:22:19;100582.66;;;4.21;100.00
32109;BME280;18624;50.042;8.436;2023-12-20T06:24:45;100565.50;;;4.02;100.00
32109;BME280;18624;50.042;8.436;2023-12-20T06:27:12;100568.97;;;3.99;100.00
32109;BME280;18624;50.042;8.436;2023-12-20T06:29:38;100542.06;;;3.73;100.00
32109;BME280;18624;50.042;8.436;2023-12-20T06:32:07;100580.97;;;3.98;100.00
32109;BME280;18624;50.042;8.436;2023-12-20T06:34:33;100577.50;;;3.98;100.00
32109;BME280;18624;50.042;8.436;2023-12-20T06:37:00;100558.44;;;3.87;100.00
32109;BME280;18624;50.042;8.436;2023-12-20T06:39:26;100573.22;;;4.00;100.00
32109;BME280;18624;50.042;8.436;2023-12-20T06:41:54;100578.66;;;4.00;100.00
32109;BME280;18624;50.042;8.436;2023-12-20T06:44:20;100585.63;;;3.98;100.00
32109;BME280;18624;50.042;8.436;2023-12-20T06:46:47;100565.81;;;3.90;100.00
32109;BME280;18624;50.042;8.436;2023-12-20T06:49:13;100537.09;;;3.78;100.00
32109;BME280;18624;50.042;8.436;2023-12-20T06:51:40;100561.13;;;3.84;100.00
32109;BME280;18624;50.042;8.436;2023-12-20T06:54:06;100513.69;;;3.52;100.00
32109;BME280;18624;50.042;8.436;2023-12-20T06:56:33;100538.56;;;3.69;100.00
32109;BME280;18624;50.042;8.436;2023-12-20T06:58:59;100594.94;;;3.97;100.00
32109;BME280;18624;50.042;8.436;2023-12-20T07:01:26;100593.72;;;3.94;100.00
32109;BME280;18624;50.042;8.436;2023-12-20T07:03:53;100611.63;;;4.02;100.00
32109;BME280;18624;50.042;8.436;2023-12-20T07:06:19;100549.00;;;3.67;100.00
32109;BME280;18624;50.042;8.436;2023-12-20T07:08:48;100549.78;;;3.67;100.00
32109;BME280;18624;50.042;8.436;2023-12-20T07:11:14;100595.34;;;4.02;100.00
32109;BME280;18624;50.042;8.436;2023-12-20T07:13:40;100610.06;;;4.01;100.00
32109;BME280;18624;50.042;8.436;2023-12-20T07:16:07;100580.47;;;3.78;100.00
32109;BME280;18624;50.042;8.436;2023-12-20T07:18:33;100614.72;;;4.01;100.00
32109;BME280;18624;50.042;8.436;2023-12-20T07:21:00;100574.56;;;3.66;100.00
32109;BME280;18624;50.042;8.436;2023-12-20T07:23:27;100583.50;;;3.73;100.00
32109;BME280;18624;50.042;8.436;2023-12-20T07:25:53;100613.06;;;3.89;100.00
32109;BME280;18624;50.042;8.436;2023-12-20T07:28:19;100583.97;;;3.79;100.00
32109;BME280;18624;50.042;8.436;2023-12-20T07:30:46;100609.19;;;3.90;100.00
32109;BME280;18624;50.042;8.436;2023-12-20T07:33:13;100606.09;;;3.88;100.00
32109;BME280;18624;50.042;8.436;2023-12-20T07:35:40;100601.78;;;3.80;100.00
32109;BME280;18624;50.042;8.436;2023-12-20T07:38:06;100622.03;;;3.93;100.00
32109;BME280;18624;50.042;8.436;2023-12-20T07:40:33;100589.66;;;3.67;100.00
32109;BME280;18624;50.042;8.436;2023-12-20T07:42:59;100613.84;;;3.90;100.00
32109;BME280;18624;50.042;8.436;2023-12-20T07:45:26;100610.31;;;3.82;100.00
32109;BME280;18624;50.042;8.436;2023-12-20T07:47:52;100606.41;;;3.76;100.00
32109;BME280;18624;50.042;8.436;2023-12-20T07:50:20;100631.31;;;3.92;100.00
32109;BME280;18624;50.042;8.436;2023-12-20T07:52:46;100612.66;;;3.84;100.00
32109;BME280;18624;50.042;8.436;2023-12-20T07:55:13;100610.66;;;3.77;100.00
32109;BME280;18624;50.042;8.436;2023-12-20T07:57:39;100636.38;;;3.97;100.00
32109;BME280;18624;50.042;8.436;2023-12-20T08:00:06;100652.75;;;4.12;100.00
32109;BME280;18624;50.042;8.436;2023-12-20T08:02:34;100623.94;;;3.93;100.00
32109;BME280;18624;50.042;8.436;2023-12-20T08:05:00;100629.06;;;4.01;100.00
32109;BME280;18624;50.042;8.436;2023-12-20T08:07:30;100618.19;;;4.05;100.00
32109;BME280;18624;50.042;8.436;2023-12-20T08:09:57;100616.25;;;3.98;100.00
32109;BME280;18624;50.042;8.436;2023-12-20T08:12:25;100608.09;;;3.98;100.00
32109;BME280;18624;50.042;8.436;2023-12-20T08:14:54;100625.22;;;4.13;100.00
32109;BME280;18624;50.042;8.436;2023-12-20T08:17:20;100616.28;;;4.09;100.00
32109;BME280;18624;50.042;8.436;2023-12-20T08:19:47;100652.13;;;4.32;100.00
32109;BME280;18624;50.042;8.436;2023-12-20T08:22:14;100656.00;;;4.35;100.00
32109;BME280;18624;50.042;8.436;2023-12-20T08:24:40;100615.50;;;4.05;100.00
32109;BME280;18624;50.042;8.436;2023-12-20T08:27:07;100617.09;;;4.13;100.00
32109;BME280;18624;50.042;8.436;2023-12-20T08:29:33;100639.69;;;4.28;100.00
32109;BME280;18624;50.042;8.436;2023-12-20T08:32:00;100664.56;;;4.44;100.00
32109;BME280;18624;50.042;8.436;2023-12-20T08:34:27;100645.13;;;4.35;100.00
32109;BME280;18624;50.042;8.436;2023-12-20T08:36:54;100667.28;;;4.44;100.00
32109;BME280;18624;50.042;8.436;2023-12-20T08:39:20;100629.59;;;4.25;100.00
32109;BME280;18624;50.042;8.436;2023-12-20T08:41:47;100674.69;;;4.47;100.00
32109;BME280;18624;50.042;8.436;2023-12-20T08:44:13;100652.53;;;4.38;100.00
32109;BME280;18624;50.042;8.436;2023-12-20T08:46:40;100657.97;;;4.42;100.00
32109;BME280;18624;50.042;8.436;2023-12-20T08:49:06;100593.03;;;4.01;100.00
32109;BME280;18624;50.042;8.436;2023-12-20T08:51:33;100639.31;;;4.33;100.00
32109;BME280;18624;50.042;8.436;2023-12-20T08:54:00;100633.50;;;4.35;100.00
32109;BME280;18624;50.042;8.436;2023-12-20T08:56:26;100636.25;;;4.38;100.00
32109;BME280;18624;50.042;8.436;2023-12-20T08:58:53;100652.22;;;4.57;100.00
32109;BME280;18624;50.042;8.436;2023-12-20T09:01:22;100621.91;;;4.41;100.00
32109;BME280;18624;50.042;8.436;2023-12-20T09:03:48;100636.69;;;4.47;100.00
32109;BME280;18624;50.042;8.436;2023-12-20T09:06:15;100630.88;;;4.49;100.00
32109;BME280;18624;50.042;8.436;2023-12-20T09:08:42;100627.38;;;4.48;100.00
32109;BME280;18624;50.042;8.436;2023-12-20T09:11:08;100631.69;;;4.56;100.00
32109;BME280;18624;50.042;8.436;2023-12-20T09:13:35;100653.84;;;4.66;100.00
32109;BME280;18624;50.042;8.436;2023-12-20T09:16:02;100665.53;;;4.80;100.00
32109;BME280;18624;50.042;8.436;2023-12-20T09:18:29;100637.16;;;4.67;100.00
32109;BME280;18624;50.042;8.436;2023-12-20T09:20:55;100650.41;;;4.83;100.00
32109;BME280;18624;50.042;8.436;2023-12-20T09:23:22;100543.47;;;4.11;100.00
32109;BME280;18624;50.042;8.436;2023-12-20T09:25:48;100587.44;;;4.49;100.00
32109;BME280;18624;50.042;8.436;2023-12-20T09:28:15;100616.63;;;4.70;100.00
32109;BME280;18624;50.042;8.436;2023-12-20T09:30:42;100653.94;;;4.94;100.00
32109;BME280;18624;50.042;8.436;2023-12-20T09:33:11;100617.41;;;4.74;100.00
32109;BME280;18624;50.042;8.436;2023-12-20T09:35:38;100606.91;;;4.72;100.00
32109;BME280;18624;50.042;8.436;2023-12-20T09:38:05;100610.06;;;4.78;100.00
32109;BME280;18624;50.042;8.436;2023-12-20T09:40:32;100653.56;;;5.03;100.00
32109;BME280;18624;50.042;8.436;2023-12-20T09:43:10;100638.00;;;4.82;100.00
32109;BME280;18624;50.042;8.436;2023-12-20T09:45:38;100644.19;;;4.86;100.00
32109;BME280;18624;50.042;8.436;2023-12-20T09:48:07;100631.78;;;4.85;100.00
32109;BME280;18624;50.042;8.436;2023-12-20T09:50:34;100660.19;;;5.02;100.00
32109;BME280;18624;50.042;8.436;2023-12-20T09:53:02;100648.88;;;4.89;100.00
32109;BME280;18624;50.042;8.436;2023-12-20T09:55:32;100620.13;;;4.77;100.00
32109;BME280;18624;50.042;8.436;2023-12-20T09:57:59;100632.19;;;4.83;100.00
32109;BME280;18624;50.042;8.436;2023-12-20T10:00:26;100670.28;;;5.12;100.00
32109;BME280;18624;50.042;8.436;2023-12-20T10:02:57;100623.66;;;4.92;100.00
32109;BME280;18624;50.042;8.436;2023-12-20T10:05:31;100645.84;;;5.05;100.00
32109;BME280;18624;50.042;8.436;2023-12-20T10:08:00;100617.47;;;4.99;100.00
32109;BME280;18624;50.042;8.436;2023-12-20T10:10:27;100561.84;;;4.50;100.00
32109;BME280;18624;50.042;8.436;2023-12-20T10:13:10;100630.69;;;5.00;100.00
32109;BME280;18624;50.042;8.436;2023-12-20T10:15:37;100605.41;;;4.89;100.00
32109;BME280;18624;50.042;8.436;2023-12-20T10:18:05;100581.72;;;4.86;100.00
32109;BME280;18624;50.042;8.436;2023-12-20T10:20:32;100624.13;;;5.16;100.00
32109;BME280;18624;50.042;8.436;2023-12-20T10:23:00;100609.75;;;5.12;100.00
32109;BME280;18624;50.042;8.436;2023-12-20T10:25:27;100649.78;;;5.43;100.00
32109;BME280;18624;50.042;8.436;2023-12-20T10:28:11;100634.25;;;5.44;100.00
32109;BME280;18624;50.042;8.436;2023-12-20T10:30:39;100636.97;;;5.58;100.00
32109;BME280;18624;50.042;8.436;2023-12-20T10:33:07;100601.25;;;5.52;100.00
32109;BME280;18624;50.042;8.436;2023-12-20T10:35:38;100574.44;;;5.40;100.00
32109;BME280;18624;50.042;8.436;2023-12-20T10:38:10;100598.53;;;5.63;100.00
32109;BME280;18624;50.042;8.436;2023-12-20T10:40:38;100578.34;;;5.50;100.00
32109;BME280;18624;50.042;8.436;2023-12-20T10:43:05;100550.78;;;5.41;100.00
32109;BME280;18624;50.042;8.436;2023-12-20T10:45:32;100599.28;;;5.74;100.00
32109;BME280;18624;50.042;8.436;2023-12-20T10:47:59;100549.56;;;5.49;100.00
32109;BME280;18624;50.042;8.436;2023-12-20T10:50:27;100546.09;;;5.52;100.00
32109;BME280;18624;50.042;8.436;2023-12-20T10:52:54;100526.28;;;5.48;100.00
32109;BME280;18624;50.042;8.436;2023-12-20T10:55:25;100553.84;;;5.57;100.00
32109;BME280;18624;50.042;8.436;2023-12-20T10:58:07;100559.28;;;5.75;100.00
32109;BME280;18624;50.042;8.436;2023-12-20T11:00:39;100555.41;;;5.65;100.00
32109;BME280;18624;50.042;8.436;2023-12-20T11:03:11;100556.56;;;5.75;100.00
32109;BME280;18624;50.042;8.436;2023-12-20T11:09:11;100577.53;;;5.92;100.00
32109;BME280;18624;50.042;8.436;2023-12-20T11:14:08;100571.69;;;5.87;100.00
32109;BME280;18624;50.042;8.436;2023-12-20T11:16:38;100566.66;;;5.81;100.00
32109;BME280;18624;50.042;8.436;2023-12-20T11:19:17;100520.06;;;5.54;100.00
32109;BME280;18624;50.042;8.436;2023-12-20T11:21:45;100569.38;;;5.92;100.00
32109;BME280;18624;50.042;8.436;2023-12-20T11:24:12;100585.31;;;6.04;100.00
32109;BME280;18624;50.042;8.436;2023-12-20T11:26:46;100525.09;;;5.67;100.00
32109;BME280;18624;50.042;8.436;2023-12-20T11:29:35;100567.78;;;6.02;100.00
32109;BME280;18624;50.042;8.436;2023-12-20T11:32:03;100582.56;;;6.08;100.00
32109;BME280;18624;50.042;8.436;2023-12-20T11:34:32;100571.69;;;6.04;100.00
32109;BME280;18624;50.042;8.436;2023-12-20T11:37:02;100590.69;;;6.22;100.00
32109;BME280;18624;50.042;8.436;2023-12-20T11:39:30;100566.25;;;6.04;100.00
32109;BME280;18624;50.042;8.436;2023-12-20T11:41:57;100531.66;;;5.94;100.00
32109;BME280;18624;50.042;8.436;2023-12-20T11:44:25;100551.47;;;6.02;100.00
32109;BME280;18624;50.042;8.436;2023-12-20T11:46:52;100571.66;;;6.15;100.00
32109;BME280;18624;50.042;8.436;2023-12-20T11:49:23;100563.91;;;6.10;100.00
32109;BME280;18624;50.042;8.436;2023-12-20T11:51:49;100539.03;;;5.97;100.00
32109;BME280;18624;50.042;8.436;2023-12-20T11:54:16;100512.25;;;5.78;100.00
32109;BME280;18624;50.042;8.436;2023-12-20T11:56:42;100571.25;;;6.27;100.00
32109;BME280;18624;50.042;8.436;2023-12-20T11:59:09;100557.28;;;6.11;100.00
32109;BME280;18624;50.042;8.436;2023-12-20T12:01:49;100572.00;;;6.24;100.00
32109;BME280;18624;50.042;8.436;2023-12-20T12:04:16;100532.44;;;6.02;100.00
32109;BME280;18624;50.042;8.436;2023-12-20T12:06:46;100510.66;;;5.98;100.00
32109;BME280;18624;50.042;8.436;2023-12-20T12:09:13;100512.97;;;6.07;100.00
32109;BME280;18624;50.042;8.436;2023-12-20T12:11:39;100525.78;;;6.10;100.00
32109;BME280;18624;50.042;8.436;2023-12-20T12:14:07;100531.94;;;6.28;100.00
32109;BME280;18624;50.042;8.436;2023-12-20T12:16:34;100492.38;;;6.02;100.00
32109;BME280;18624;50.042;8.436;2023-12-20T12:19:00;100526.09;;;6.33;100.00
32109;BME280;18624;50.042;8.436;2023-12-20T12:21:27;100461.72;;;5.80;100.00
32109;BME280;18624;50.042;8.436;2023-12-20T12:24:09;100542.78;;;6.39;100.00
32109;BME280;18624;50.042;8.436;2023-12-20T12:26:36;100533.47;;;6.33;100.00
32109;BME280;18624;50.042;8.436;2023-12-20T12:29:02;100540.47;;;6.38;100.00
32109;BME280;18624;50.042;8.436;2023-12-20T12:31:30;100495.88;;;6.06;100.00
32109;BME280;18624;50.042;8.436;2023-12-20T12:33:56;100500.53;;;6.13;100.00
32109;BME280;18624;50.042;8.436;2023-12-20T12:36:23;100507.88;;;6.20;100.00
32109;BME280;18624;50.042;8.436;2023-12-20T12:38:50;100554.00;;;6.52;100.00
32109;BME280;18624;50.042;8.436;2023-12-20T12:41:17;100523.75;;;6.36;100.00
32109;BME280;18624;50.042;8.436;2023-12-20T12:43:43;100511.72;;;6.33;100.00
32109;BME280;18624;50.042;8.436;2023-12-20T12:46:10;100419.41;;;5.72;100.00
32109;BME280;18624;50.042;8.436;2023-12-20T12:48:36;100517.56;;;6.35;100.00
32109;BME280;18624;50.042;8.436;2023-12-20T12:51:03;100500.06;;;6.25;100.00
32109;BME280;18624;50.042;8.436;2023-12-20T12:53:29;100505.50;;;6.32;100.00
32109;BME280;18624;50.042;8.436;2023-12-20T12:55:56;100463.22;;;6.10;100.00